South Coast: Past 24 Hour Conditions

 

Winterland

06:30 PM NDT 24 April 2014
This table is a summary of hourly weather conditions for the past 24 hours.
Date / Time
(NDT)
Wind(knots) Conditions Visibility(km) Pressure(kPa) Air tempC) Relative humidity(%) Dew pointC)
24 April 2014
18:30 ENE 21 gust 27 Light Precipitation 15 99.8 3 76 -1
17:30 ENE 23 gust 37 Light Precipitation 15 99.8 3 73 -1
16:30 ENE 24 gust 33 Light Snow 15 99.9 4 70 -1
15:30 ENE 31 gust 38 Light Snow 15 99.9 4 69 -1
14:30 ENE 28 gust 38 Light Snow 15 100.0 4 69 -1
13:30 ENE 27 gust 38 Light Snow 15 100.0 4 69 -1
12:30 ENE 27 gust 37 Light Snow 15 100.1 4 69 -1
11:30 ENE 20 gust 31 Light Snow 15 100.2 4 68 -1
10:30 ENE 18 gust 27 Light Snow 15 100.2 3 69 -2
9:30 ENE 17 gust 30 Light Snow 15 100.2 3 70 -2
8:30 ENE 23 gust 30 Light Snow 15 100.2 3 71 -2
7:30 ENE 19 gust 27 Light Snow 15 100.2 2 74 -3
6:30 ENE 13 gust 21 Sunny 15 100.2 1 78 -3
5:30 ENE 14 gust 24 Clear 15 100.2 0 77 -3
4:30 ENE 19 gust 25 Light Snow 15 100.1 1 73 -4
3:30 ENE 15 gust 20 Mainly Clear 15 100.2 1 74 -3
2:30 ENE 13 gust 19 Clear 15 100.2 1 71 -4
1:30 NE 16 Clear 15 100.2 1 74 -3
0:30 ENE 13 gust 21 Clear 15 100.2 1 77 -3
23 April 2014
23:30 ENE 12 gust 17 Mostly Cloudy 15 100.3 1 85 -1
22:30 ENE 13 gust 24 Light Precipitation 15 100.3 1 85 -1
21:30 NE 13 Cloudy 15 100.3 2 87 0
20:30 ENE 14 gust 20 Partly Cloudy 15 100.3 3 86 1
19:30 ENE 14 gust 19 Sunny 15 100.2 4 83 1
18:30 ENE 18 gust 25 Mainly Sunny 15 100.3 5 76 1
 
Map of Atlantic - Newfoundland marine weather areas Southwestern Grand Banks - 44138 Banquereau - 44139 Tail of the Bank - 44140 Nickerson Bank - 44251 Northeast Burgeo Bank - 44255 Blanc-Sablon Airport Cap Whittle Chevery Natashquan Airport Heath Point Miscou Island Grand Étang Ingonish Beach North Mountain St.Paul Island J.A. Douglas McCurdy Sydney Airport Charlottetown Airport East Point North Cape Argentia Bonavista Burgeo Cape Race Corner Brook Daniel's Harbour Englee Ferolle Point La Scie Port aux Basques Rocky Harbour Sagona Island St. Anthony Airport St. John's Int'l Airport St. Lawrence Stephenville Airport Twillingate Winterland Wreckhouse Cartwright Airport Mary's Harbour Grates Cove Pool's Island Marticot Island Long Pond Îles de la Madeleine Airport
Legend: buoyBuoy land stationLand Station